Time;durP1;ratioP1;P1;durP2;ratioP2;P2;SDS_P1;SDS_P2;PMS_P1;PMS_P2;Temp;Humidity;BMP_temperature;BMP_pressure;BME280_temperature;BME280_humidity;BME280_pressure;Samples;Min_cycle;Max_cycle;Signal;HPM_P1;HPM_P2
2023/10/25 00:00:09;;;;;;;4.97;4.75;;;;;;;7.89;100.00;99894.25;5963737;23;20086;-73
2023/10/25 00:02:37;;;;;;;4.60;4.35;;;;;;;7.12;100.00;99766.03;5933873;24;20310;-73
2023/10/25 00:05:04;;;;;;;5.35;5.10;;;;;;;7.67;100.00;99863.22;5960222;23;20169;-72
2023/10/25 00:07:30;;;;;;;5.32;4.95;;;;;;;7.63;100.00;99846.88;5954685;23;20037;-73
2023/10/25 00:09:57;;;;;;;4.78;4.38;;;;;;;7.93;100.00;99894.00;5964239;23;20031;-73
2023/10/25 00:12:24;;;;;;;5.28;4.88;;;;;;;7.92;100.00;99900.16;5936764;24;20051;-73
2023/10/25 00:14:52;;;;;;;9.70;4.55;;;;;;;7.89;100.00;99892.47;5962962;23;20483;-73
2023/10/25 00:17:18;;;;;;;5.57;5.25;;;;;;;7.31;100.00;99796.38;5932282;24;20365;-72
2023/10/25 00:19:52;;;;;;;4.35;4.10;;;;;;;7.87;100.00;99890.88;5956509;23;20027;-72
2023/10/25 00:23:20;;;;;;;5.72;4.43;;;;;;;7.88;100.00;99887.38;5958951;23;20036;-72
2023/10/25 00:25:57;;;;;;;4.80;4.50;;;;;;;7.81;100.00;99881.59;5915330;24;20266;-72
2023/10/25 00:28:23;;;;;;;4.80;4.50;;;;;;;7.63;100.00;99852.09;5968559;23;20035;-73
2023/10/25 00:30:50;;;;;;;4.30;4.10;;;;;;;7.44;100.00;99820.91;5963733;23;20040;-73
2023/10/25 00:33:38;;;;;;;5.32;5.03;;;;;;;7.29;100.00;99795.63;5937086;24;20535;-72
2023/10/25 00:36:20;;;;;;;4.80;4.50;;;;;;;7.74;100.00;99877.66;5951372;23;20641;-73
2023/10/25 00:38:46;;;;;;;4.88;4.57;;;;;;;7.71;100.00;99878.63;5950665;24;20186;-73
2023/10/25 00:41:13;;;;;;;5.90;5.57;;;;;;;6.82;100.00;99739.81;5968171;23;20044;-72
2023/10/25 00:43:48;;;;;;;5.28;4.78;;;;;;;7.52;100.00;99860.50;5967221;23;20437;-74
2023/10/25 00:46:19;;;;;;;5.15;4.88;;;;;;;7.18;100.00;99807.47;5953996;23;20039;-73
2023/10/25 00:48:47;;;;;;;4.40;4.20;;;;;;;7.63;100.00;99890.44;5968921;23;20060;-73
2023/10/25 00:51:16;;;;;;;6.25;5.95;;;;;;;6.77;100.00;99752.22;5924015;24;20538;-72
2023/10/25 00:53:49;;;;;;;4.30;4.10;;;;;;;7.26;100.00;99840.16;5970233;23;20042;-75
2023/10/25 00:56:16;;;;;;;4.97;4.68;;;;;;;6.84;100.00;99776.25;5941512;24;20467;-73
2023/10/25 00:58:45;;;;;;;4.55;4.25;;;;;;;7.54;100.00;99884.78;5964106;23;20099;-73
2023/10/25 01:01:14;;;;;;;7.50;6.82;;;;;;;6.88;100.00;99772.56;5961896;23;20031;-74
2023/10/25 01:03:41;;;;;;;5.65;5.25;;;;;;;6.92;100.00;99784.50;5934044;24;20032;-74
2023/10/25 01:06:08;;;;;;;4.88;4.57;;;;;;;7.51;100.00;99878.84;5964902;23;20028;-72
2023/10/25 01:08:35;;;;;;;5.57;5.18;;;;;;;7.57;100.00;99884.59;5970458;23;20099;-72
2023/10/25 01:11:03;;;;;;;4.75;4.45;;;;;;;7.35;100.00;99856.16;5929083;24;20028;-73
2023/10/25 01:13:29;;;;;;;4.68;4.47;;;;;;;7.56;100.00;99879.47;5967321;23;20042;-72
2023/10/25 01:15:56;;;;;;;4.88;4.57;;;;;;;7.52;100.00;99865.72;5936518;24;20029;-72
2023/10/25 01:18:22;;;;;;;4.22;4.03;;;;;;;7.48;100.00;99876.44;5970303;23;20341;-73
2023/10/25 01:20:49;;;;;;;4.40;4.15;;;;;;;7.08;100.00;99810.66;5934446;24;20368;-74
2023/10/25 01:23:16;;;;;;;6.38;6.05;;;;;;;7.10;100.00;99843.56;5965334;23;20024;-73
2023/10/25 01:25:43;;;;;;;4.93;4.70;;;;;;;7.46;100.00;99878.28;5945672;24;20038;-73
2023/10/25 01:28:10;;;;;;;4.68;4.38;;;;;;;7.48;100.00;99882.47;5960591;23;20027;-73
2023/10/25 01:30:38;;;;;;;4.80;4.40;;;;;;;7.46;100.00;99876.50;5969254;23;20111;-73
2023/10/25 01:33:04;;;;;;;5.35;5.15;;;;;;;7.02;100.00;99806.59;5958898;23;20042;-72
2023/10/25 01:35:32;;;;;;;4.53;4.22;;;;;;;7.45;100.00;99877.41;5962325;23;20024;-73
2023/10/25 01:37:59;;;;;;;4.35;4.05;;;;;;;7.39;100.00;99868.13;5916888;24;20092;-73
2023/10/25 01:40:25;;;;;;;4.43;4.22;;;;;;;7.46;100.00;99866.06;5966807;23;20550;-73
2023/10/25 01:42:54;;;;;;;5.40;5.00;;;;;;;7.46;100.00;99857.38;5961784;23;20495;-73
2023/10/25 01:45:27;;;;;;;5.18;4.88;;;;;;;7.43;100.00;99860.16;5935701;24;20323;-73
2023/10/25 01:47:53;;;;;;;6.15;4.88;;;;;;;6.75;100.00;99754.91;5967562;23;20447;-73
2023/10/25 01:50:20;;;;;;;4.80;4.40;;;;;;;7.44;100.00;99856.59;5939211;24;20091;-73
2023/10/25 01:52:46;;;;;;;4.68;4.38;;;;;;;7.43;100.00;99853.16;5965030;23;20061;-73
2023/10/25 01:55:43;;;;;;;5.10;4.70;;;;;;;7.42;100.00;99858.44;5936450;24;20124;-73
2023/10/25 01:58:17;;;;;;;4.75;4.38;;;;;;;7.21;100.00;99809.06;5941627;23;20024;-73
2023/10/25 02:00:44;;;;;;;4.97;4.60;;;;;;;7.48;100.00;99848.53;5952266;23;20036;-73
2023/10/25 02:03:10;;;;;;;5.70;5.35;;;;;;;6.88;100.00;99757.75;5964078;23;20032;-73
2023/10/25 02:05:37;;;;;;;4.68;4.43;;;;;;;7.45;100.00;99840.03;5963468;23;20124;-73
2023/10/25 02:08:13;;;;;;;4.22;4.03;;;;;;;7.41;100.00;99841.94;5970576;23;20087;-73
2023/10/25 02:10:52;;;;;;;5.68;4.55;;;;;;;7.25;100.00;99817.59;5935171;23;20119;-73
2023/10/25 02:13:18;;;;;;;5.50;5.10;;;;;;;7.38;100.00;99836.91;5966769;23;20375;-74
2023/10/25 02:15:45;;;;;;;4.60;4.40;;;;;;;7.37;100.00;99830.81;5955072;23;20185;-73
2023/10/25 02:18:11;;;;;;;4.88;4.57;;;;;;;7.09;100.00;99778.41;5936826;24;20263;-73
2023/10/25 02:20:38;;;;;;;4.53;4.32;;;;;;;7.16;100.00;99821.53;5964273;23;20036;-73
2023/10/25 02:23:05;;;;;;;5.15;4.95;;;;;;;7.03;100.00;99781.34;5961400;23;20030;-73
2023/10/25 02:25:31;;;;;;;4.68;4.47;;;;;;;7.26;100.00;99827.13;5961609;23;20274;-72
2023/10/25 02:28:05;;;;;;;4.43;4.13;;;;;;;7.14;100.00;99808.56;5963361;23;20024;-75
2023/10/25 02:30:32;;;;;;;5.18;4.82;;;;;;;7.01;100.00;99777.97;5970344;23;20059;-74
2023/10/25 02:33:02;;;;;;;4.50;4.30;;;;;;;7.16;100.00;99821.53;5956386;23;20264;-72
2023/10/25 02:35:46;;;;;;;5.57;4.45;;;;;;;7.21;100.00;99824.72;5943729;23;20020;-72
2023/10/25 02:38:18;;;;;;;4.28;4.07;;;;;;;7.07;100.00;99801.97;5967504;23;20146;-72
2023/10/25 02:40:45;;;;;;;5.18;4.88;;;;;;;7.15;100.00;99828.50;5965512;23;20027;-72
2023/10/25 02:43:11;;;;;;;6.82;6.35;;;;;;;7.16;100.00;99819.75;5930654;24;20263;-71
2023/10/25 02:45:37;;;;;;;4.65;4.35;;;;;;;7.17;100.00;99817.97;5967025;23;20428;-72
2023/10/25 02:48:11;;;;;;;4.50;4.20;;;;;;;7.18;100.00;99817.91;5934904;24;20028;-75
2023/10/25 02:50:37;;;;;;;4.97;4.63;;;;;;;7.15;100.00;99801.56;5940998;24;20034;-73
2023/10/25 02:53:04;;;;;;;5.57;5.28;;;;;;;7.04;100.00;99790.88;5959611;23;20056;-73
2023/10/25 02:55:32;;;;;;;4.40;4.20;;;;;;;6.90;100.00;99762.88;5967874;23;20031;-73
2023/10/25 02:57:59;;;;;;;4.55;4.35;;;;;;;6.65;100.00;99713.75;5970105;23;20031;-72
2023/10/25 03:00:25;;;;;;;5.28;4.93;;;;;;;7.29;100.00;99811.28;5947192;24;20562;-72
2023/10/25 03:02:51;;;;;;;4.63;4.43;;;;;;;7.30;100.00;99803.38;5957006;23;20031;-74
2023/10/25 03:05:18;;;;;;;5.00;4.80;;;;;;;7.31;100.00;99792.00;5936836;24;20157;-74
2023/10/25 03:07:45;;;;;;;4.95;4.72;;;;;;;6.73;100.00;99696.78;5957058;23;20027;-72
2023/10/25 03:10:11;;;;;;;4.40;4.20;;;;;;;6.86;100.00;99717.84;5960203;23;20076;-74
2023/10/25 03:12:38;;;;;;;4.72;4.45;;;;;;;7.35;100.00;99790.06;5963775;23;20055;-74
2023/10/25 03:15:05;;;;;;;5.72;5.43;;;;;;;7.31;100.00;99789.38;5958651;23;20083;-74
2023/10/25 03:17:31;;;;;;;4.35;4.15;;;;;;;7.27;100.00;99781.81;5943866;24;20044;-73
2023/10/25 03:20:00;;;;;;;4.95;4.65;;;;;;;7.06;100.00;99757.72;5965138;23;20493;-73
2023/10/25 03:22:26;;;;;;;4.93;4.63;;;;;;;7.23;100.00;99777.69;5956206;23;20734;-73
2023/10/25 03:24:53;;;;;;;4.47;4.28;;;;;;;7.21;100.00;99771.69;5935295;24;20279;-73
2023/10/25 03:27:24;;;;;;;5.10;4.80;;;;;;;6.95;100.00;99729.56;5960528;23;21100;-73
2023/10/25 03:29:51;;;;;;;4.50;4.30;;;;;;;7.18;100.00;99773.53;5941019;23;20027;-73
2023/10/25 03:32:30;;;;;;;4.35;4.15;;;;;;;6.68;100.00;99706.63;5969787;23;20027;-73
2023/10/25 03:35:15;;;;;;;5.10;4.70;;;;;;;7.18;100.00;99777.94;5963346;23;20431;-72
2023/10/25 03:37:44;;;;;;;4.88;4.57;;;;;;;7.18;100.00;99781.38;5974314;23;20043;-72
2023/10/25 03:40:37;;;;;;;4.30;4.10;;;;;;;6.99;100.00;99746.75;5965027;23;20215;-74
2023/10/25 03:43:10;;;;;;;6.22;5.80;;;;;;;7.18;100.00;99780.53;5938258;23;20493;-73
2023/10/25 03:45:37;;;;;;;4.20;3.90;;;;;;;7.04;100.00;99765.63;5940580;24;20147;-72
2023/10/25 03:48:04;;;;;;;4.82;4.53;;;;;;;6.82;100.00;99731.16;5960992;23;20042;-73
2023/10/25 03:51:28;;;;;;;5.00;4.60;;;;;;;7.15;100.00;99776.31;5956520;23;20161;-74
2023/10/25 03:53:55;;;;;;;4.50;4.30;;;;;;;7.13;100.00;99775.53;5909003;24;20341;-72
2023/10/25 03:56:22;;;;;;;4.50;4.30;;;;;;;6.84;100.00;99737.13;5961646;23;20031;-72
2023/10/25 03:58:51;;;;;;;4.80;4.50;;;;;;;7.09;100.00;99776.63;5957414;23;20028;-72
2023/10/25 04:01:18;;;;;;;5.13;4.82;;;;;;;6.88;100.00;99723.84;5933845;23;20217;-73
2023/10/25 04:03:44;;;;;;;4.50;4.30;;;;;;;7.17;100.00;99771.84;5962682;23;20591;-73
2023/10/25 04:06:11;;;;;;;4.57;4.22;;;;;;;6.22;100.00;99615.19;5959545;23;20134;-73
2023/10/25 04:08:38;;;;;;;4.40;4.10;;;;;;;6.84;100.00;99711.06;5957403;23;20361;-73
2023/10/25 04:11:05;;;;;;;5.70;5.40;;;;;;;6.52;100.00;99653.59;5930207;23;20043;-73
2023/10/25 04:13:34;;;;;;;4.82;4.45;;;;;;;7.19;100.00;99762.16;5960324;23;20050;-73
2023/10/25 04:16:02;;;;;;;5.00;4.70;;;;;;;7.21;100.00;99750.81;5961458;23;20416;-74
2023/10/25 04:18:30;;;;;;;6.35;4.63;;;;;;;7.33;100.00;99756.22;5955370;23;20092;-73
2023/10/25 04:20:58;;;;;;;6.18;4.20;;;;;;;7.33;100.00;99756.22;5955729;23;20034;-75
2023/10/25 04:23:30;;;;;;;4.80;4.43;;;;;;;6.78;100.00;99660.06;5939329;23;20027;-72
2023/10/25 04:26:09;;;;;;;4.78;4.50;;;;;;;7.50;100.00;99764.94;5963271;23;20024;-72
2023/10/25 04:28:37;;;;;;;4.68;4.20;;;;;;;7.48;100.00;99756.34;5962097;23;20058;-72
2023/10/25 04:31:04;;;;;;;6.00;5.68;;;;;;;7.17;100.00;99705.78;5944813;23;20533;-73
2023/10/25 04:33:31;;;;;;;5.05;4.75;;;;;;;6.33;100.00;99571.16;5940882;24;20063;-71
2023/10/25 04:35:57;;;;;;;4.57;4.28;;;;;;;7.54;100.00;99758.59;5956873;23;20509;-72
2023/10/25 04:38:24;;;;;;;4.95;4.57;;;;;;;7.24;100.00;99706.31;5940785;24;20058;-72
2023/10/25 04:40:52;;;;;;;4.55;4.35;;;;;;;7.06;100.00;99669.00;5934385;23;20087;-72
2023/10/25 04:43:18;;;;;;;5.30;5.00;;;;;;;7.48;100.00;99727.63;5951896;23;20216;-72
2023/10/25 04:45:46;;;;;;;4.82;4.50;;;;;;;7.12;100.00;99669.50;5914733;24;20020;-72
2023/10/25 04:48:12;;;;;;;4.88;4.57;;;;;;;6.87;100.00;99627.41;5904056;24;20043;-72
2023/10/25 04:50:39;;;;;;;4.85;4.47;;;;;;;6.91;100.00;99636.75;5959988;23;20255;-72
2023/10/25 04:53:06;;;;;;;6.20;5.80;;;;;;;7.26;100.00;99686.19;5955757;23;20459;-73
2023/10/25 04:55:46;;;;;;;5.15;4.85;;;;;;;6.85;100.00;99632.72;5954562;23;20051;-74
2023/10/25 04:58:13;;;;;;;4.40;4.20;;;;;;;6.62;100.00;99581.81;5957061;23;20051;-73
2023/10/25 05:00:40;;;;;;;4.35;4.15;;;;;;;7.33;100.00;99697.97;5929225;24;20047;-72
2023/10/25 05:03:10;;;;;;;6.82;6.35;;;;;;;7.22;100.00;99667.25;5963716;23;20601;-73
2023/10/25 05:05:38;;;;;;;9.70;5.38;;;;;;;7.29;100.00;99691.22;5927610;24;20028;-72
2023/10/25 05:08:07;;;;;;;4.38;4.18;;;;;;;6.83;100.00;99631.13;5960617;23;20387;-73
2023/10/25 05:10:33;;;;;;;4.95;4.65;;;;;;;7.23;100.00;99688.97;5937548;24;20024;-73
2023/10/25 05:13:00;;;;;;;4.88;4.47;;;;;;;7.27;100.00;99690.47;5955379;23;20034;-73
2023/10/25 05:15:28;;;;;;;9.18;4.95;;;;;;;6.61;100.00;99590.53;5962550;23;20071;-73
2023/10/25 05:17:56;;;;;;;4.80;4.50;;;;;;;7.02;100.00;99668.34;5935196;23;20114;-72
2023/10/25 05:20:23;;;;;;;4.53;4.22;;;;;;;7.05;100.00;99675.13;5960751;23;20026;-71
2023/10/25 05:22:51;;;;;;;5.45;5.15;;;;;;;6.78;100.00;99629.59;5957955;23;20043;-72
2023/10/25 05:25:18;;;;;;;5.45;5.15;;;;;;;7.16;100.00;99694.50;5954947;23;20276;-72
2023/10/25 05:27:45;;;;;;;5.53;5.13;;;;;;;7.15;100.00;99684.97;5959502;23;20024;-72
2023/10/25 05:30:14;;;;;;;4.97;4.63;;;;;;;7.17;100.00;99685.75;5937074;24;20252;-72
2023/10/25 05:32:48;;;;;;;5.22;4.93;;;;;;;7.16;100.00;99659.75;5962220;23;20054;-72
2023/10/25 05:35:21;;;;;;;6.05;5.63;;;;;;;7.24;100.00;99675.81;5943321;24;20024;-73
2023/10/25 05:37:48;;;;;;;4.72;4.43;;;;;;;7.25;100.00;99663.63;5969218;23;20035;-71
2023/10/25 05:40:15;;;;;;;5.93;5.38;;;;;;;7.27;100.00;99656.53;5937008;24;20020;-71
2023/10/25 05:42:49;;;;;;;4.60;4.40;;;;;;;7.23;100.00;99670.69;5967790;23;20032;-71
2023/10/25 05:45:16;;;;;;;7.55;6.80;;;;;;;7.26;100.00;99658.31;5935857;24;20331;-73
2023/10/25 05:47:43;;;;;;;5.53;5.22;;;;;;;7.18;100.00;99658.72;5967815;23;20428;-71
2023/10/25 05:50:10;;;;;;;6.15;5.13;;;;;;;7.06;100.00;99627.28;5918701;24;20253;-72
2023/10/25 05:52:44;;;;;;;6.43;4.80;;;;;;;7.23;100.00;99660.25;5933986;23;20088;-72
2023/10/25 05:55:14;;;;;;;5.95;5.65;;;;;;;7.27;100.00;99659.16;5977303;23;20020;-72
2023/10/25 05:57:41;;;;;;;5.25;4.85;;;;;;;7.30;100.00;99652.00;5966453;23;20090;-72
2023/10/25 06:00:08;;;;;;;5.07;4.78;;;;;;;7.31;100.00;99647.63;5943989;24;20333;-72
2023/10/25 06:02:35;;;;;;;5.13;4.82;;;;;;;7.37;100.00;99655.09;5961219;23;20051;-73
2023/10/25 06:05:02;;;;;;;4.95;4.65;;;;;;;7.09;100.00;99611.44;5959122;23;20244;-73
2023/10/25 06:07:34;;;;;;;6.00;4.50;;;;;;;6.11;100.00;99476.84;5958566;23;20109;-73
2023/10/25 06:10:02;;;;;;;5.57;5.25;;;;;;;7.13;100.00;99610.34;5958317;23;20533;-72
2023/10/25 06:12:29;;;;;;;5.65;5.15;;;;;;;7.33;100.00;99641.38;5961124;23;20553;-72
2023/10/25 06:14:56;;;;;;;5.43;5.13;;;;;;;7.33;100.00;99641.38;5966842;23;20214;-73
2023/10/25 06:17:22;;;;;;;10.52;5.85;;;;;;;7.02;100.00;99577.03;5933181;24;20245;-72
2023/10/25 06:19:51;;;;;;;5.10;4.80;;;;;;;7.28;100.00;99617.31;5965554;23;20113;-72
2023/10/25 06:22:18;;;;;;;7.47;4.95;;;;;;;7.30;100.00;99625.06;5934960;24;20099;-74
2023/10/25 06:24:44;;;;;;;5.13;4.85;;;;;;;7.29;100.00;99618.16;5964723;23;20028;-73
2023/10/25 06:27:10;;;;;;;8.27;5.57;;;;;;;7.15;100.00;99591.06;5965902;23;20090;-74
2023/10/25 06:29:37;;;;;;;7.15;6.47;;;;;;;7.14;100.00;99584.16;5941257;24;20566;-73
2023/10/25 06:32:05;;;;;;;5.57;5.18;;;;;;;7.38;100.00;99609.81;5965635;23;20232;-72
2023/10/25 06:34:31;;;;;;;5.28;4.88;;;;;;;6.72;100.00;99496.13;5964212;23;20020;-73
2023/10/25 06:37:00;;;;;;;5.38;5.00;;;;;;;6.60;100.00;99463.75;5937023;24;20028;-72
2023/10/25 06:39:27;;;;;;;4.53;4.32;;;;;;;7.21;100.00;99552.50;5963162;23;20519;-73
2023/10/25 06:41:57;;;;;;;5.35;5.05;;;;;;;7.58;100.00;99599.06;5914055;24;20039;-75
2023/10/25 06:44:25;;;;;;;6.03;5.13;;;;;;;7.61;100.00;99592.00;5966893;23;20019;-73
2023/10/25 06:46:52;;;;;;;5.15;4.70;;;;;;;7.66;100.00;99588.19;5933183;24;20169;-71
2023/10/25 06:49:20;;;;;;;5.70;5.25;;;;;;;7.69;100.00;99590.63;5961021;23;20063;-73
2023/10/25 06:51:47;;;;;;;4.82;4.53;;;;;;;7.13;100.00;99485.94;5943626;23;20050;-72
2023/10/25 06:54:14;;;;;;;4.50;4.30;;;;;;;7.76;100.00;99575.44;5963590;23;20141;-74
2023/10/25 06:56:40;;;;;;;4.40;4.20;;;;;;;7.85;100.00;99574.06;5956288;23;20086;-72
2023/10/25 06:59:07;;;;;;;6.25;5.85;;;;;;;7.38;100.00;99508.03;5960383;23;20075;-72
2023/10/25 07:01:41;;;;;;;4.60;4.40;;;;;;;7.70;100.00;99528.81;5938451;23;20072;-73
2023/10/25 07:04:14;;;;;;;5.68;5.20;;;;;;;7.93;100.00;99543.94;5937744;24;20050;-72
2023/10/25 07:06:44;;;;;;;5.55;5.05;;;;;;;7.95;100.00;99533.38;5966546;23;20028;-72
2023/10/25 07:09:13;;;;;;;6.88;6.28;;;;;;;7.94;100.00;99521.28;5955445;23;20040;-72
2023/10/25 07:11:40;;;;;;;4.68;4.47;;;;;;;7.90;100.00;99501.50;5966163;23;20020;-75
2023/10/25 07:14:06;;;;;;;4.68;4.35;;;;;;;8.01;100.00;99495.59;5967461;23;20302;-75
2023/10/25 07:16:33;;;;;;;5.03;4.72;;;;;;;8.09;100.00;99493.38;5943041;24;20012;-72
2023/10/25 07:19:00;;;;;;;5.28;4.78;;;;;;;8.09;100.00;99480.31;5969837;23;20407;-73
2023/10/25 07:21:26;;;;;;;4.70;4.40;;;;;;;8.11;100.00;99465.38;5965147;23;23183;-73
2023/10/25 07:23:53;;;;;;;5.10;4.55;;;;;;;8.09;100.00;99467.25;5946180;24;20028;-73
2023/10/25 07:26:19;;;;;;;5.28;4.90;;;;;;;7.45;100.00;99350.09;5976629;23;20030;-72
2023/10/25 07:28:46;;;;;;;4.25;4.05;;;;;;;7.32;100.00;99310.06;5960877;23;20027;-72
2023/10/25 07:31:12;;;;;;;6.78;6.40;;;;;;;8.19;100.00;99439.59;5966445;23;20098;-73
2023/10/25 07:33:41;;;;;;;4.55;4.35;;;;;;;7.29;100.00;99271.09;5948661;24;20348;-72
2023/10/25 07:36:08;;;;;;;4.93;4.63;;;;;;;8.28;100.00;99409.41;5967022;23;20055;-72
2023/10/25 07:38:36;;;;;;;4.97;4.68;;;;;;;7.89;100.00;99333.47;5949787;24;20056;-72
2023/10/25 07:41:03;;;;;;;5.57;5.28;;;;;;;8.11;100.00;99356.44;5959307;23;20290;-72
2023/10/25 07:43:30;;;;;;;4.97;4.68;;;;;;;8.43;100.00;99398.03;5964822;23;20091;-72
2023/10/25 07:45:56;;;;;;;5.00;4.65;;;;;;;8.48;100.00;99387.25;5963037;23;20027;-71
2023/10/25 07:48:23;;;;;;;4.40;4.20;;;;;;;8.54;100.00;99386.91;5963626;23;20348;-72
2023/10/25 07:50:50;;;;;;;4.45;4.25;;;;;;;8.52;100.00;99362.59;5961948;23;20263;-72
2023/10/25 07:53:19;;;;;;;5.65;5.35;;;;;;;8.32;100.00;99314.22;5935440;24;20174;-72
2023/10/25 07:55:45;;;;;;;4.82;4.63;;;;;;;8.74;100.00;99360.28;5957559;23;20154;-72
2023/10/25 07:58:15;;;;;;;5.20;4.90;;;;;;;8.52;100.00;99311.16;5934706;24;20094;-73
2023/10/25 08:00:47;;;;;;;4.60;4.40;;;;;;;8.97;100.00;99361.34;5966094;23;20387;-71
2023/10/25 08:03:16;;;;;;;6.38;6.07;;;;;;;8.83;100.00;99310.91;5963595;23;20290;-72
2023/10/25 08:05:44;;;;;;;4.30;4.10;;;;;;;9.12;100.00;99359.50;5939142;23;20323;-71
2023/10/25 08:08:10;;;;;;;5.88;5.57;;;;;;;8.82;100.00;99268.22;5942442;24;20039;-72
2023/10/25 08:10:37;;;;;;;4.60;4.40;;;;;;;9.50;100.00;99329.84;5961466;23;20035;-72
2023/10/25 08:13:04;;;;;;;5.93;5.57;;;;;;;9.04;100.00;99224.84;5908478;24;20304;-72
2023/10/25 08:15:30;;;;;;;8.20;4.53;;;;;;;8.93;100.00;99191.59;5966811;23;20028;-72
2023/10/25 08:17:57;;;;;;;5.00;4.70;;;;;;;9.42;100.00;99251.00;5934185;23;20220;-71
2023/10/25 08:20:25;;;;;;;5.05;4.65;;;;;;;9.73;100.00;99295.94;5962496;23;20246;-71
2023/10/25 08:22:52;;;;;;;4.80;4.53;;;;;;;9.08;100.00;99163.50;5965426;23;20051;-71
2023/10/25 08:25:18;;;;;;;5.35;5.05;;;;;;;8.92;100.00;99114.03;5954645;23;20468;-72
2023/10/25 08:27:45;;;;;;;4.60;4.40;;;;;;;10.03;100.00;99250.97;5960047;23;20184;-71
2023/10/25 08:30:11;;;;;;;4.57;4.38;;;;;;;9.65;100.00;99169.94;5940787;23;20087;-72
2023/10/25 08:32:38;;;;;;;4.60;4.32;;;;;;;10.26;100.00;99217.78;5961921;23;20038;-71
2023/10/25 08:35:06;;;;;;;9.13;5.25;;;;;;;10.31;100.00;99202.59;5914971;24;20475;-71
2023/10/25 08:37:32;;;;;;;4.53;4.32;;;;;;;10.31;100.00;99192.09;5959316;23;20091;-71
2023/10/25 08:39:59;;;;;;;4.50;4.30;;;;;;;10.37;100.00;99186.41;5962459;23;20016;-71
2023/10/25 08:42:25;;;;;;;4.53;4.32;;;;;;;10.29;100.00;99164.31;5960089;23;20082;-72
2023/10/25 08:44:52;;;;;;;4.90;4.60;;;;;;;10.21;100.00;99141.28;5940444;23;20028;-71
2023/10/25 08:47:19;;;;;;;5.35;5.05;;;;;;;10.27;100.00;99150.47;5949097;23;20276;-70
2023/10/25 08:49:46;;;;;;;4.82;4.63;;;;;;;10.19;100.00;99143.19;5939290;23;20040;-71
2023/10/25 08:52:16;;;;;;;4.93;4.72;;;;;;;10.14;100.00;99140.06;5932086;24;20368;-71
2023/10/25 08:54:44;;;;;;;5.22;4.93;;;;;;;9.73;100.00;99086.38;5961864;23;20062;-71
2023/10/25 08:57:11;;;;;;;5.53;5.32;;;;;;;10.03;100.00;99142.69;5932572;24;20341;-71
2023/10/25 08:59:45;;;;;;;5.28;4.68;;;;;;;10.02;100.00;99151.47;5960691;23;20019;-71
2023/10/25 09:02:12;;;;;;;4.55;4.35;;;;;;;9.63;100.00;99101.09;5910167;24;20024;-72
2023/10/25 09:04:58;;;;;;;4.72;4.53;;;;;;;9.95;100.00;99153.72;5947217;23;20028;-74
2023/10/25 09:07:29;;;;;;;4.50;4.30;;;;;;;9.91;100.00;99155.75;5936483;23;20468;-71
2023/10/25 09:09:56;;;;;;;4.43;4.22;;;;;;;9.98;100.00;99149.09;5959678;23;20110;-72
2023/10/25 09:12:23;;;;;;;4.70;4.50;;;;;;;8.95;100.00;98975.16;5939819;24;20036;-72
2023/10/25 09:14:51;;;;;;;4.88;4.68;;;;;;;9.47;100.00;99064.72;5966826;23;20047;-72
2023/10/25 09:17:18;;;;;;;7.85;5.25;;;;;;;9.71;100.00;99106.59;5957386;23;20606;-72
2023/10/25 09:19:47;;;;;;;4.78;4.57;;;;;;;9.77;100.00;99103.53;5965726;23;20043;-72
2023/10/25 09:22:22;;;;;;;5.00;4.80;;;;;;;9.36;100.00;99052.41;5961510;23;20027;-71
2023/10/25 09:24:49;;;;;;;4.97;4.60;;;;;;;9.42;100.00;99046.75;5963282;23;20020;-72
2023/10/25 09:27:18;;;;;;;7.07;5.38;;;;;;;9.58;100.00;99083.94;5936938;24;20032;-72
2023/10/25 09:29:45;;;;;;;4.70;4.50;;;;;;;8.96;100.00;98984.66;5961442;23;20012;-73
2023/10/25 09:32:12;;;;;;;4.65;4.38;;;;;;;9.08;100.00;98999.50;5940763;24;20039;-74
2023/10/25 09:34:38;;;;;;;4.40;4.20;;;;;;;9.81;100.00;99104.97;5963398;23;20704;-73
2023/10/25 09:37:06;;;;;;;5.43;5.18;;;;;;;8.48;100.00;98882.69;5934309;23;20016;-72
2023/10/25 09:39:35;;;;;;;4.65;4.45;;;;;;;9.69;100.00;99062.19;5966586;23;20188;-73
2023/10/25 09:42:04;;;;;;;4.93;4.65;;;;;;;9.95;100.00;99080.34;5964606;23;20078;-71
2023/10/25 09:44:40;;;;;;;4.75;4.53;;;;;;;9.31;100.00;98974.22;5967555;23;20024;-71
2023/10/25 09:47:11;;;;;;;5.65;5.38;;;;;;;9.62;100.00;98992.84;5955535;23;20502;-72
2023/10/25 09:49:55;;;;;;;5.43;4.53;;;;;;;8.37;100.00;98779.72;5967481;23;20090;-73
2023/10/25 09:52:27;;;;;;;4.60;4.30;;;;;;;10.07;100.00;99036.66;5964663;23;20171;-72
2023/10/25 09:55:03;;;;;;;4.82;4.60;;;;;;;9.74;100.00;98991.97;5964630;23;20024;-72
2023/10/25 09:57:32;;;;;;;4.20;4.00;;;;;;;9.46;100.00;98887.63;5968106;23;20208;-72
2023/10/25 09:59:59;;;;;;;4.40;4.20;;;;;;;9.83;100.00;98950.28;5963288;23;20036;-71
2023/10/25 10:02:44;;;;;;;5.00;4.70;;;;;;;9.59;100.00;98907.50;5961812;23;20060;-70
2023/10/25 10:05:26;;;;;;;6.20;5.82;;;;;;;10.20;100.00;98992.78;5939214;23;20497;-71
2023/10/25 10:08:11;;;;;;;4.10;3.90;;;;;;;10.22;100.00;98983.03;5963680;23;20464;-72
2023/10/25 10:10:47;;;;;;;6.90;4.20;;;;;;;9.76;100.00;98897.50;5949231;23;20020;-71
2023/10/25 10:13:18;;;;;;;6.07;5.78;;;;;;;10.21;100.00;98970.06;5959587;23;20348;-73
2023/10/25 10:15:58;;;;;;;4.40;4.20;;;;;;;9.87;100.00;98913.25;5966139;23;20593;-73
2023/10/25 10:18:31;;;;;;;4.53;4.10;;;;;;;10.21;100.00;98970.06;5935154;24;20463;-74
2023/10/25 10:21:05;;;;;;;4.95;4.65;;;;;;;10.23;100.00;98968.16;5965726;23;20030;-74
2023/10/25 10:23:39;;;;;;;6.60;4.22;;;;;;;10.26;100.00;98968.72;5936827;24;20107;-73
2023/10/25 10:26:08;;;;;;;4.82;4.45;;;;;;;9.72;100.00;98867.25;5964774;23;20027;-72
2023/10/25 10:28:43;;;;;;;4.72;4.45;;;;;;;10.20;100.00;98940.38;5963732;23;20023;-74
2023/10/25 10:31:11;;;;;;;6.00;5.70;;;;;;;10.18;100.00;98939.66;5938482;23;20010;-72
2023/10/25 10:33:46;;;;;;;5.18;4.88;;;;;;;10.15;100.00;98945.16;5968454;23;20023;-72
2023/10/25 10:36:24;;;;;;;5.75;4.68;;;;;;;10.14;100.00;98961.81;5968206;23;20082;-71
2023/10/25 10:39:12;;;;;;;4.15;3.95;;;;;;;10.12;100.00;98950.63;5969333;23;20043;-72
2023/10/25 10:41:40;;;;;;;4.28;4.07;;;;;;;10.11;100.00;98947.19;5942093;24;20241;-73
2023/10/25 10:44:07;;;;;;;4.72;4.43;;;;;;;10.09;100.00;98945.63;5971939;23;20039;-72
2023/10/25 10:46:51;;;;;;;4.57;4.38;;;;;;;10.10;100.00;98945.53;5895890;24;20573;-71
2023/10/25 10:49:20;;;;;;;5.93;5.63;;;;;;;9.78;100.00;98898.22;5959555;23;20129;-71
2023/10/25 10:51:48;;;;;;;4.90;4.60;;;;;;;9.91;100.00;98932.19;5943005;23;20044;-71
2023/10/25 10:54:15;;;;;;;4.90;4.60;;;;;;;10.10;100.00;98942.03;5960317;23;20069;-71
2023/10/25 10:56:42;;;;;;;4.72;4.53;;;;;;;10.11;100.00;98933.25;5946037;24;20284;-71
2023/10/25 10:59:08;;;;;;;6.07;5.68;;;;;;;10.02;100.00;98937.41;5962825;23;20027;-71
2023/10/25 11:01:35;;;;;;;4.47;4.28;;;;;;;9.77;100.00;98909.66;5965672;23;20030;-71
2023/10/25 11:04:01;;;;;;;4.68;4.47;;;;;;;9.90;100.00;98935.75;5946162;24;20103;-71
2023/10/25 11:06:29;;;;;;;4.80;4.60;;;;;;;9.38;100.00;98872.50;5959483;23;20036;-72
2023/10/25 11:08:59;;;;;;;5.28;4.93;;;;;;;9.23;100.00;98844.88;5936129;24;20121;-71
2023/10/25 11:11:26;;;;;;;5.18;4.88;;;;;;;9.32;100.00;98870.34;5953798;23;20024;-71
2023/10/25 11:13:53;;;;;;;4.80;4.60;;;;;;;9.70;100.00;98930.28;5932987;24;20032;-71
2023/10/25 11:16:20;;;;;;;5.25;4.95;;;;;;;9.82;100.00;98962.53;5962637;23;20085;-71
2023/10/25 11:18:46;;;;;;;5.10;4.82;;;;;;;9.77;100.00;98954.19;5954220;23;20290;-70
2023/10/25 11:21:14;;;;;;;6.65;6.20;;;;;;;9.84;100.00;98958.00;5941039;24;20290;-71
2023/10/25 11:23:42;;;;;;;6.38;5.85;;;;;;;9.85;100.00;98962.31;5959651;23;20090;-72
2023/10/25 11:26:08;;;;;;;5.07;4.75;;;;;;;9.79;100.00;98952.31;5964863;23;20169;-71
2023/10/25 11:28:38;;;;;;;5.43;5.07;;;;;;;9.81;100.00;98958.25;5968019;23;20545;-72
2023/10/25 11:31:06;;;;;;;6.65;6.20;;;;;;;9.79;100.00;98944.44;5939478;24;20081;-71
2023/10/25 11:33:44;;;;;;;5.07;4.78;;;;;;;9.82;100.00;98948.59;5966196;23;20020;-71
2023/10/25 11:36:11;;;;;;;5.47;5.13;;;;;;;9.49;100.00;98896.06;5960865;23;20426;-71
2023/10/25 11:38:44;;;;;;;5.00;4.70;;;;;;;9.59;100.00;98917.97;5967750;23;20023;-71
2023/10/25 11:41:11;;;;;;;6.38;6.07;;;;;;;9.14;100.00;98830.69;5936020;23;20464;-71